createdAt,value
2018-05-04T00:01:39.558Z,100635.42
2018-05-04T00:04:07.324Z,100626.36
2018-05-04T00:06:35.089Z,100617.16
2018-05-04T00:09:02.953Z,100633.59
2018-05-04T00:11:30.887Z,100641.34
2018-05-04T00:13:58.690Z,100643.39
2018-05-04T00:16:26.398Z,100641.00
2018-05-04T00:18:54.216Z,100647.75
2018-05-04T00:21:21.930Z,100647.81
2018-05-04T00:23:49.746Z,100653.44
2018-05-04T00:26:17.613Z,100649.21
2018-05-04T00:28:45.479Z,100646.11
2018-05-04T00:31:13.244Z,100646.33
2018-05-04T00:33:40.999Z,100648.53
2018-05-04T00:36:08.774Z,100656.44
2018-05-04T00:38:36.539Z,100656.11
2018-05-04T00:41:04.408Z,100653.65
2018-05-04T00:43:32.228Z,100640.59
2018-05-04T00:46:00.039Z,100634.88
2018-05-04T00:48:28.112Z,100636.16
2018-05-04T00:50:55.977Z,100630.89
2018-05-04T00:53:23.748Z,100635.45
2018-05-04T00:55:51.750Z,100634.33
2018-05-04T00:58:19.374Z,100642.27
2018-05-04T01:00:47.241Z,100639.74
2018-05-04T01:03:14.903Z,100638.56
2018-05-04T01:05:42.725Z,100638.48
2018-05-04T01:08:10.530Z,100635.30
2018-05-04T01:10:38.295Z,100637.06
2018-05-04T01:13:06.001Z,100632.56
2018-05-04T01:15:33.715Z,100630.45
2018-05-04T01:18:01.384Z,100627.41
2018-05-04T01:20:29.250Z,100623.89
2018-05-04T01:22:56.997Z,100624.16
2018-05-04T01:25:24.780Z,100619.80
2018-05-04T01:27:52.548Z,100614.81
2018-05-04T01:30:20.266Z,100617.47
2018-05-04T01:32:48.072Z,100611.71
2018-05-04T01:35:15.837Z,100609.47
2018-05-04T01:37:43.498Z,100608.41
2018-05-04T01:40:11.264Z,100604.89
2018-05-04T01:42:39.123Z,100610.91
2018-05-04T01:45:06.788Z,100618.98
2018-05-04T01:47:34.455Z,100613.30
2018-05-04T01:50:02.222Z,100613.88
2018-05-04T01:52:29.989Z,100612.59
2018-05-04T01:54:57.640Z,100614.15
2018-05-04T01:57:25.410Z,100617.14
2018-05-04T01:59:53.137Z,100624.10
2018-05-04T02:02:20.837Z,100622.02
2018-05-04T02:04:48.704Z,100613.77
2018-05-04T02:07:16.467Z,100616.19
2018-05-04T02:09:44.300Z,100611.10
2018-05-04T02:12:12.106Z,100618.97
2018-05-04T02:14:39.970Z,100617.02
2018-05-04T02:17:07.799Z,100619.77
2018-05-04T02:19:35.487Z,100625.92
2018-05-04T02:22:03.260Z,100623.17
2018-05-04T02:24:30.977Z,100619.52
2018-05-04T02:26:58.681Z,100618.48
2018-05-04T02:29:26.655Z,100623.77
2018-05-04T02:31:54.375Z,100625.46
2018-05-04T02:34:22.184Z,100631.91
2018-05-04T02:36:49.917Z,100627.66
2018-05-04T02:39:17.609Z,100628.88
2018-05-04T02:41:45.376Z,100628.50
2018-05-04T02:44:13.084Z,100626.16
2018-05-04T02:46:40.811Z,100629.97
2018-05-04T02:49:08.671Z,100636.77
2018-05-04T02:51:36.393Z,100636.68
2018-05-04T02:54:04.204Z,100632.88
2018-05-04T02:56:31.858Z,100630.21
2018-05-04T02:58:59.624Z,100633.43
2018-05-04T03:01:27.287Z,100648.64
2018-05-04T03:03:55.014Z,100633.20
2018-05-04T03:06:22.816Z,100634.64
2018-05-04T03:08:50.582Z,100637.76
2018-05-04T03:11:18.390Z,100635.03
2018-05-04T03:13:46.212Z,100626.91
2018-05-04T03:16:13.921Z,100632.44
2018-05-04T03:18:41.741Z,100633.60
2018-05-04T03:21:09.401Z,100631.39
2018-05-04T03:23:37.121Z,100630.91
2018-05-04T03:26:04.933Z,100633.31
2018-05-04T03:28:32.701Z,100641.73
2018-05-04T03:31:00.565Z,100637.14
2018-05-04T03:33:28.327Z,100643.09
2018-05-04T03:35:55.994Z,100641.59
2018-05-04T03:38:23.760Z,100655.69
2018-05-04T03:40:52.443Z,100646.63
2018-05-04T03:43:20.151Z,100654.61
2018-05-04T03:45:47.965Z,100658.38
2018-05-04T03:48:15.735Z,100660.78
2018-05-04T03:50:43.600Z,100663.92
2018-05-04T03:53:11.359Z,100666.23
2018-05-04T03:55:39.133Z,100664.90
2018-05-04T03:58:18.774Z,100663.63
2018-05-04T04:00:58.517Z,100661.29
2018-05-04T04:03:38.160Z,100657.59
2018-05-04T04:06:05.826Z,100667.08
2018-05-04T04:08:33.587Z,100669.80
2018-05-04T04:11:01.453Z,100665.95
2018-05-04T04:13:29.219Z,100671.70
2018-05-04T04:15:57.031Z,100665.27
2018-05-04T04:18:24.849Z,100666.41
2018-05-04T04:20:52.573Z,100665.66
2018-05-04T04:23:20.307Z,100669.05
2018-05-04T04:25:48.049Z,100673.56
2018-05-04T04:28:15.935Z,100677.63
2018-05-04T04:30:43.774Z,100683.51
2018-05-04T04:33:11.743Z,100686.53
2018-05-04T04:35:39.567Z,100680.27
2018-05-04T04:38:07.375Z,100684.98
2018-05-04T04:40:35.099Z,100692.72
2018-05-04T04:43:02.904Z,100695.51
2018-05-04T04:45:30.769Z,100691.70
2018-05-04T04:47:58.624Z,100701.42
2018-05-04T04:50:26.406Z,100698.56
2018-05-04T04:52:54.165Z,100703.73
2018-05-04T04:55:21.874Z,100705.02
2018-05-04T04:57:49.690Z,100710.00
2018-05-04T05:00:17.464Z,100712.73
2018-05-04T05:02:45.326Z,100712.53
2018-05-04T05:05:13.091Z,100708.97
2018-05-04T05:07:40.857Z,100718.66
2018-05-04T05:10:08.621Z,100725.91
2018-05-04T05:12:36.487Z,100724.54
2018-05-04T05:15:04.247Z,100726.36
2018-05-04T05:17:31.915Z,100723.30
2018-05-04T05:19:59.739Z,100729.39
2018-05-04T05:22:27.548Z,100723.48
2018-05-04T05:24:55.310Z,100727.94
2018-05-04T05:27:23.074Z,100731.96
2018-05-04T05:29:50.842Z,100727.81
2018-05-04T05:32:18.594Z,100734.11
2018-05-04T05:34:46.313Z,100721.48
2018-05-04T05:37:14.078Z,100727.61
2018-05-04T05:39:41.995Z,100721.36
2018-05-04T05:42:09.762Z,100719.96
2018-05-04T05:44:37.478Z,100723.55
2018-05-04T05:47:05.296Z,100724.92
2018-05-04T05:49:33.053Z,100730.58
2018-05-04T05:52:00.798Z,100726.83
2018-05-04T05:54:28.646Z,100724.80
2018-05-04T05:56:56.453Z,100729.39
2018-05-04T05:59:24.177Z,100720.15
2018-05-04T06:01:52.084Z,100719.38
2018-05-04T06:04:20.032Z,100734.30
2018-05-04T06:06:47.819Z,100732.43
2018-05-04T06:09:16.512Z,100733.77
2018-05-04T06:11:44.334Z,100725.97
2018-05-04T06:14:12.136Z,100728.89
2018-05-04T06:16:40.108Z,100731.73
2018-05-04T06:19:07.766Z,100732.53
2018-05-04T06:21:35.775Z,100729.09
2018-05-04T06:24:03.501Z,100726.16
2018-05-04T06:26:31.162Z,100725.31
2018-05-04T06:28:59.544Z,100726.99
2018-05-04T06:31:27.514Z,100733.94
2018-05-04T06:33:55.417Z,100738.74
2018-05-04T06:36:23.346Z,100740.66
2018-05-04T06:38:51.761Z,100739.14
2018-05-04T06:41:19.667Z,100745.18
2018-05-04T06:43:47.531Z,100736.62
2018-05-04T06:46:15.436Z,100745.14
2018-05-04T06:48:43.144Z,100745.30
2018-05-04T06:51:11.062Z,100751.11
2018-05-04T06:53:38.828Z,100753.38
2018-05-04T06:56:06.490Z,100748.89
2018-05-04T06:58:34.354Z,100744.08
2018-05-04T07:01:02.071Z,100742.32
2018-05-04T07:03:29.836Z,100748.09
2018-05-04T07:05:57.839Z,100753.42
2018-05-04T07:08:25.514Z,100743.53
2018-05-04T07:10:53.282Z,100751.55
2018-05-04T07:13:21.145Z,100753.41
2018-05-04T07:15:48.876Z,100755.17
2018-05-04T07:18:16.678Z,100746.55
2018-05-04T07:20:44.336Z,100760.73
2018-05-04T07:23:11.994Z,100740.38
2018-05-04T07:25:39.766Z,100751.70
2018-05-04T07:28:07.528Z,100747.12
2018-05-04T07:30:35.291Z,100753.34
2018-05-04T07:33:03.051Z,100753.94
2018-05-04T07:35:30.720Z,100755.11
2018-05-04T07:37:58.523Z,100756.31
2018-05-04T07:40:26.351Z,100757.64
2018-05-04T07:42:54.056Z,100745.22
2018-05-04T07:45:21.874Z,100741.70
2018-05-04T07:47:49.542Z,100743.04
2018-05-04T07:50:17.408Z,100742.11
2018-05-04T07:52:45.063Z,100744.97
2018-05-04T07:55:12.848Z,100758.19
2018-05-04T07:57:40.598Z,100754.47
2018-05-04T08:00:08.466Z,100752.16
2018-05-04T08:02:36.293Z,100750.45
2018-05-04T08:05:04.034Z,100752.48
2018-05-04T08:07:32.476Z,100746.06
2018-05-04T08:10:00.134Z,100754.44
2018-05-04T08:12:27.902Z,100752.03
2018-05-04T08:14:55.774Z,100754.61
2018-05-04T08:17:23.502Z,100753.28
2018-05-04T08:19:51.198Z,100752.53
2018-05-04T08:22:18.904Z,100752.17
2018-05-04T08:24:46.724Z,100751.23
2018-05-04T08:27:14.491Z,100746.55
2018-05-04T08:29:42.360Z,100751.40
2018-05-04T08:32:10.169Z,100747.45
2018-05-04T08:34:37.889Z,100757.88
2018-05-04T08:37:05.702Z,100755.89
2018-05-04T08:39:33.525Z,100752.85
2018-05-04T08:42:01.285Z,100746.57
2018-05-04T08:44:29.044Z,100747.92
2018-05-04T08:46:56.914Z,100734.17
2018-05-04T08:49:24.884Z,100743.66
2018-05-04T08:51:52.604Z,100734.27
2018-05-04T08:54:20.415Z,100733.70
2018-05-04T08:56:48.587Z,100728.55
2018-05-04T08:59:16.462Z,100726.39
2018-05-04T09:01:44.199Z,100732.23
2018-05-04T09:04:11.880Z,100725.22
2018-05-04T09:06:39.642Z,100723.55
2018-05-04T09:09:07.406Z,100717.99
2018-05-04T09:11:35.273Z,100723.76
2018-05-04T09:14:02.987Z,100718.64
2018-05-04T09:16:30.803Z,100721.52
2018-05-04T09:18:58.458Z,100718.56
2018-05-04T09:21:26.128Z,100726.47
2018-05-04T09:23:53.783Z,100722.09
2018-05-04T09:26:21.643Z,100717.75
2018-05-04T09:28:49.414Z,100722.61
2018-05-04T09:31:17.131Z,100723.27
2018-05-04T09:33:44.951Z,100727.91
2018-05-04T09:36:12.784Z,100722.14
2018-05-04T09:38:40.625Z,100722.06
2018-05-04T09:41:08.448Z,100720.25
2018-05-04T09:43:36.370Z,100724.76
2018-05-04T09:46:04.182Z,100728.84
2018-05-04T09:48:31.946Z,100719.83
2018-05-04T09:50:59.763Z,100729.06
2018-05-04T09:53:27.585Z,100735.09
2018-05-04T09:55:55.376Z,100722.55
2018-05-04T09:58:23.213Z,100728.89
2018-05-04T10:00:50.861Z,100735.77
2018-05-04T10:03:18.639Z,100732.34
2018-05-04T10:05:46.448Z,100728.94
2018-05-04T10:08:14.205Z,100729.88
2018-05-04T10:10:41.929Z,100719.94
2018-05-04T10:13:09.592Z,100716.38
2018-05-04T10:15:37.459Z,100720.19
2018-05-04T10:18:05.327Z,100713.11
2018-05-04T10:20:33.094Z,100709.52
2018-05-04T10:23:00.754Z,100710.27
2018-05-04T10:25:28.416Z,100718.75
2018-05-04T10:27:56.180Z,100707.11
2018-05-04T10:30:23.814Z,100715.23
2018-05-04T10:32:51.754Z,100709.35
2018-05-04T10:35:19.680Z,100710.41
2018-05-04T10:37:47.540Z,100700.56
2018-05-04T10:40:15.303Z,100698.10
2018-05-04T10:42:43.276Z,100694.66
2018-05-04T10:45:11.010Z,100693.95
2018-05-04T10:47:38.807Z,100682.30
2018-05-04T10:50:06.497Z,100689.20
2018-05-04T10:52:34.182Z,100691.05
2018-05-04T10:55:02.003Z,100691.81
2018-05-04T10:57:29.786Z,100683.56
2018-05-04T10:59:57.586Z,100687.20
2018-05-04T11:02:25.402Z,100683.80
2018-05-04T11:04:53.364Z,100676.38
2018-05-04T11:07:21.029Z,100677.48
2018-05-04T11:09:48.793Z,100671.47
2018-05-04T11:12:16.520Z,100675.88
2018-05-04T11:14:44.216Z,100667.02
2018-05-04T11:17:11.932Z,100667.28
2018-05-04T11:19:39.744Z,100673.02
2018-05-04T11:22:07.509Z,100670.52
2018-05-04T11:27:02.320Z,100669.52
2018-05-04T11:29:29.983Z,100663.98
2018-05-04T11:31:57.747Z,100671.05
2018-05-04T11:34:25.614Z,100663.48
2018-05-04T11:36:53.378Z,100666.19
2018-05-04T11:39:21.048Z,100666.30
2018-05-04T11:41:48.909Z,100667.70
2018-05-04T11:44:16.673Z,100661.36
2018-05-04T11:46:44.437Z,100667.27
2018-05-04T11:49:12.103Z,100664.95
2018-05-04T11:51:39.966Z,100664.16
2018-05-04T11:54:07.734Z,100655.05
2018-05-04T11:56:35.597Z,100666.71
2018-05-04T11:59:03.252Z,100666.45
2018-05-04T12:01:31.024Z,100664.25
2018-05-04T12:03:58.736Z,100654.88
2018-05-04T12:06:26.442Z,100657.35
2018-05-04T12:08:54.103Z,100661.78
2018-05-04T12:11:21.885Z,100655.36
2018-05-04T12:13:49.640Z,100655.92
2018-05-04T12:16:17.307Z,100657.91
2018-05-04T12:18:45.173Z,100659.62
2018-05-04T12:21:12.895Z,100657.35
2018-05-04T12:23:40.638Z,100653.75
2018-05-04T12:26:08.431Z,100669.09
2018-05-04T12:28:36.231Z,100666.14
2018-05-04T12:31:03.848Z,100667.24
2018-05-04T12:33:31.708Z,100665.41
2018-05-04T12:35:59.423Z,100669.69
2018-05-04T12:38:27.359Z,100666.02
2018-05-04T12:40:55.363Z,100664.78
2018-05-04T12:43:23.052Z,100661.98
2018-05-04T12:45:50.789Z,100662.09
2018-05-04T12:48:18.609Z,100665.84
2018-05-04T12:50:46.417Z,100669.49
2018-05-04T12:53:14.181Z,100663.95
2018-05-04T12:55:41.948Z,100666.05
2018-05-04T12:58:09.811Z,100659.66
2018-05-04T13:00:37.679Z,100659.31
2018-05-04T13:03:05.446Z,100650.39
2018-05-04T13:05:33.312Z,100659.73
2018-05-04T13:08:01.075Z,100663.39
2018-05-04T13:10:28.941Z,100673.57
2018-05-04T13:12:56.656Z,100660.01
2018-05-04T13:15:24.470Z,100653.80
2018-05-04T13:17:52.239Z,100653.81
2018-05-04T13:20:20.005Z,100651.28
2018-05-04T13:22:47.724Z,100652.36
2018-05-04T13:25:15.528Z,100650.47
2018-05-04T13:27:43.137Z,100656.05
2018-05-04T13:30:10.879Z,100649.56
2018-05-04T13:32:38.617Z,100644.44
2018-05-04T13:35:06.279Z,100647.50
2018-05-04T13:37:35.209Z,100644.37
2018-05-04T13:40:04.347Z,100643.46
2018-05-04T13:42:32.254Z,100643.30
2018-05-04T13:44:59.998Z,100643.42
2018-05-04T13:47:27.764Z,100650.26
2018-05-04T13:49:55.629Z,100646.65
2018-05-04T13:52:23.360Z,100645.87
2018-05-04T13:54:51.159Z,100643.73
2018-05-04T13:57:18.924Z,100642.80
2018-05-04T13:59:46.579Z,100643.42
2018-05-04T14:02:14.350Z,100641.58
2018-05-04T14:04:42.068Z,100643.00
2018-05-04T14:07:09.982Z,100638.57
2018-05-04T14:09:37.644Z,100636.84
2018-05-04T14:12:05.305Z,100635.70
2018-05-04T14:14:33.007Z,100633.35
2018-05-04T14:17:00.835Z,100630.45
2018-05-04T14:19:28.492Z,100629.51
2018-05-04T14:21:56.262Z,100629.27
2018-05-04T14:24:23.925Z,100627.54
2018-05-04T14:26:51.688Z,100626.36
2018-05-04T14:29:19.350Z,100626.13
2018-05-04T14:31:47.012Z,100629.84
2018-05-04T14:34:14.673Z,100624.94
2018-05-04T14:36:42.436Z,100624.41
2018-05-04T14:39:10.305Z,100629.28
2018-05-04T14:41:38.071Z,100630.52
2018-05-04T14:44:05.834Z,100628.75
2018-05-04T14:46:33.599Z,100628.30
2018-05-04T14:49:01.468Z,100629.79
2018-05-04T14:51:29.206Z,100631.91
2018-05-04T14:53:56.997Z,100628.02
2018-05-04T14:56:24.864Z,100629.47
2018-05-04T14:58:52.728Z,100620.31
2018-05-04T15:01:20.383Z,100631.83
2018-05-04T15:03:48.157Z,100624.28
2018-05-04T15:06:15.875Z,100636.03
2018-05-04T15:08:43.583Z,100636.42
2018-05-04T15:11:11.251Z,100638.39
2018-05-04T15:13:39.115Z,100641.67
2018-05-04T15:16:06.861Z,100638.66
2018-05-04T15:18:34.743Z,100637.83
2018-05-04T15:21:02.507Z,100642.92
2018-05-04T15:23:30.233Z,100641.50
2018-05-04T15:25:58.138Z,100636.02
2018-05-04T15:28:25.904Z,100642.41
2018-05-04T15:30:53.667Z,100642.55
2018-05-04T15:33:21.323Z,100638.23
2018-05-04T15:35:49.094Z,100643.58
2018-05-04T15:38:16.861Z,100642.33
2018-05-04T15:40:44.502Z,100644.21
2018-05-04T15:43:12.218Z,100642.66
2018-05-04T15:45:39.867Z,100646.23
2018-05-04T15:48:13.075Z,100651.54
2018-05-04T15:50:46.220Z,100650.41
2018-05-04T15:53:13.993Z,100653.99
2018-05-04T15:55:41.806Z,100648.28
2018-05-04T15:58:09.624Z,100658.61
2018-05-04T16:00:37.287Z,100651.43
2018-05-04T16:03:05.007Z,100651.55
2018-05-04T16:05:32.773Z,100656.17
2018-05-04T16:08:00.580Z,100661.66
2018-05-04T16:10:28.308Z,100652.59
2018-05-04T16:12:55.998Z,100650.76
2018-05-04T16:15:23.716Z,100658.45
2018-05-04T16:17:51.533Z,100660.98
2018-05-04T16:20:19.250Z,100657.48
2018-05-04T16:22:47.065Z,100653.87
2018-05-04T16:25:14.934Z,100656.56
2018-05-04T16:27:42.695Z,100658.52
2018-05-04T16:30:10.356Z,100663.05
2018-05-04T16:32:38.015Z,100663.66
2018-05-04T16:35:05.785Z,100660.56
2018-05-04T16:37:33.593Z,100664.96
2018-05-04T16:40:01.427Z,100660.03
2018-05-04T16:42:29.278Z,100653.31
2018-05-04T16:44:57.074Z,100657.18
2018-05-04T16:47:24.713Z,100649.53
2018-05-04T16:49:52.578Z,100666.75
2018-05-04T16:52:20.340Z,100665.75
2018-05-04T16:54:48.073Z,100668.30
2018-05-04T16:57:15.743Z,100666.79
2018-05-04T16:59:43.423Z,100668.02
2018-05-04T17:02:11.143Z,100675.45
2018-05-04T17:04:38.960Z,100665.83
2018-05-04T17:07:06.716Z,100673.75
2018-05-04T17:09:34.365Z,100674.98
2018-05-04T17:12:02.039Z,100677.61
2018-05-04T17:14:29.914Z,100677.18
2018-05-04T17:16:57.566Z,100678.47
2018-05-04T17:19:25.342Z,100679.71
2018-05-04T17:21:53.046Z,100678.46
2018-05-04T17:24:20.869Z,100677.30
2018-05-04T17:26:48.737Z,100680.91
2018-05-04T17:29:16.571Z,100682.99
2018-05-04T17:31:44.260Z,100681.91
2018-05-04T17:34:12.114Z,100686.33
2018-05-04T17:36:39.895Z,100690.60
2018-05-04T17:39:07.661Z,100696.79
2018-05-04T17:41:35.314Z,100694.74
2018-05-04T17:44:03.087Z,100689.45
2018-05-04T17:46:30.824Z,100697.27
2018-05-04T17:48:58.513Z,100699.69
2018-05-04T17:51:26.278Z,100693.78
2018-05-04T17:53:53.945Z,100700.00
2018-05-04T17:56:21.587Z,100697.27
2018-05-04T17:58:49.464Z,100697.74
2018-05-04T18:01:17.131Z,100701.03
2018-05-04T18:03:44.858Z,100704.34
2018-05-04T18:06:12.724Z,100709.44
2018-05-04T18:08:41.485Z,100702.23
2018-05-04T18:11:09.311Z,100707.72
2018-05-04T18:13:37.081Z,100718.25
2018-05-04T18:16:04.798Z,100726.06
2018-05-04T18:18:32.558Z,100722.66
2018-05-04T18:21:00.377Z,100719.40
2018-05-04T18:23:28.091Z,100731.02
2018-05-04T18:25:55.910Z,100729.81
2018-05-04T18:28:23.769Z,100735.14
2018-05-04T18:30:51.432Z,100743.95
2018-05-04T18:33:19.094Z,100749.17
2018-05-04T18:35:46.858Z,100745.66
2018-05-04T18:38:14.594Z,100750.30
2018-05-04T18:40:42.391Z,100752.44
2018-05-04T18:43:10.226Z,100753.28
2018-05-04T18:45:37.919Z,100756.28
2018-05-04T18:48:05.577Z,100751.32
2018-05-04T18:50:33.343Z,100765.89
2018-05-04T18:53:01.043Z,100764.87
2018-05-04T18:55:28.916Z,100772.25
2018-05-04T18:57:56.738Z,100769.77
2018-05-04T19:00:24.401Z,100772.59
2018-05-04T19:02:57.895Z,100775.98
2018-05-04T19:05:25.560Z,100784.03
2018-05-04T19:07:53.535Z,100788.31
2018-05-04T19:10:21.193Z,100790.83
2018-05-04T19:12:49.052Z,100799.63
2018-05-04T19:15:16.826Z,100799.06
2018-05-04T19:17:44.694Z,100799.34
2018-05-04T19:20:12.455Z,100796.52
2018-05-04T19:22:40.323Z,100805.31
2018-05-04T19:25:07.979Z,100806.26
2018-05-04T19:27:35.803Z,100808.30
2018-05-04T19:30:03.618Z,100809.98
2018-05-04T19:32:31.270Z,100805.45
2018-05-04T19:34:59.043Z,100813.69
2018-05-04T19:37:27.210Z,100814.70
2018-05-04T19:39:55.089Z,100818.85
2018-05-04T19:42:22.741Z,100818.15
2018-05-04T19:44:50.511Z,100820.84
2018-05-04T19:47:18.275Z,100817.28
2018-05-04T19:49:46.003Z,100816.95
2018-05-04T19:52:13.803Z,100827.28
2018-05-04T19:54:41.472Z,100830.06
2018-05-04T19:57:09.177Z,100838.31
2018-05-04T19:59:36.995Z,100846.95
2018-05-04T20:02:04.711Z,100839.72
2018-05-04T20:04:32.421Z,100846.28
2018-05-04T20:07:00.076Z,100838.59
2018-05-04T20:09:27.744Z,100844.89
2018-05-04T20:11:55.407Z,100840.42
2018-05-04T20:14:23.119Z,100843.30
2018-05-04T20:16:50.935Z,100842.91
2018-05-04T20:19:18.600Z,100843.91
2018-05-04T20:21:46.465Z,100849.92
2018-05-04T20:24:14.190Z,100848.91
2018-05-04T20:26:42.098Z,100848.39
2018-05-04T20:29:09.757Z,100849.38
2018-05-04T20:31:37.488Z,100845.97
2018-05-04T20:34:05.290Z,100853.09
2018-05-04T20:36:33.120Z,100858.98
2018-05-04T20:39:00.813Z,100859.39
2018-05-04T20:41:28.480Z,100860.05
2018-05-04T20:43:56.243Z,100861.41
2018-05-04T20:46:24.110Z,100867.47
2018-05-04T20:48:51.827Z,100860.06
2018-05-04T20:51:19.639Z,100867.98
2018-05-04T20:53:47.296Z,100867.55
2018-05-04T20:56:14.967Z,100866.11
2018-05-04T20:58:42.618Z,100869.96
2018-05-04T21:01:10.392Z,100869.28
2018-05-04T21:03:38.101Z,100873.84
2018-05-04T21:06:05.917Z,100872.13
2018-05-04T21:08:33.684Z,100880.20
2018-05-04T21:11:01.402Z,100878.52
2018-05-04T21:13:29.212Z,100885.07
2018-05-04T21:15:56.873Z,100883.63
2018-05-04T21:18:24.724Z,100895.30
2018-05-04T21:20:52.403Z,100886.55
2018-05-04T21:23:20.374Z,100882.59
2018-05-04T21:25:47.985Z,100890.42
2018-05-04T21:28:15.803Z,100885.30
2018-05-04T21:30:43.610Z,100884.85
2018-05-04T21:33:11.436Z,100884.30
2018-05-04T21:35:39.195Z,100888.03
2018-05-04T21:38:07.062Z,100889.44
2018-05-04T21:40:34.801Z,100888.61
2018-05-04T21:43:02.591Z,100892.98
2018-05-04T21:45:30.356Z,100888.05
2018-05-04T21:47:58.122Z,100892.92
2018-05-04T21:50:25.784Z,100899.25
2018-05-04T21:52:53.483Z,100896.14
2018-05-04T21:55:21.301Z,100894.72
2018-05-04T21:57:49.076Z,100895.34
2018-05-04T22:00:16.784Z,100895.33
2018-05-04T22:02:44.651Z,100892.73
2018-05-04T22:05:12.468Z,100902.63
2018-05-04T22:07:40.231Z,100896.07
2018-05-04T22:10:07.999Z,100903.39
2018-05-04T22:12:35.662Z,100899.66
2018-05-04T22:15:03.532Z,100898.31
2018-05-04T22:17:31.192Z,100905.64
2018-05-04T22:19:58.916Z,100901.91
2018-05-04T22:22:26.720Z,100898.23
2018-05-04T22:24:54.451Z,100899.04
2018-05-04T22:27:22.146Z,100902.61
2018-05-04T22:29:49.857Z,100908.48
2018-05-04T22:32:17.676Z,100907.03
2018-05-04T22:34:45.544Z,100914.77
2018-05-04T22:37:13.307Z,100921.33
2018-05-04T22:39:41.074Z,100929.72
2018-05-04T22:42:08.839Z,100932.22
2018-05-04T22:44:36.705Z,100928.77
2018-05-04T22:47:04.423Z,100925.61
2018-05-04T22:49:32.232Z,100933.59
2018-05-04T22:51:59.895Z,100924.53
2018-05-04T22:54:27.687Z,100926.13
2018-05-04T22:56:55.421Z,100928.94
2018-05-04T22:59:23.186Z,100929.08
2018-05-04T23:01:50.952Z,100935.45
2018-05-04T23:04:18.612Z,100935.64
2018-05-04T23:06:46.380Z,100926.73
2018-05-04T23:09:14.097Z,100928.66
2018-05-04T23:11:41.906Z,100926.69
2018-05-04T23:14:09.633Z,100929.36
2018-05-04T23:16:37.442Z,100928.59
2018-05-04T23:19:05.100Z,100921.14
2018-05-04T23:21:32.869Z,100926.92
2018-05-04T23:24:00.627Z,100933.75
2018-05-04T23:26:28.339Z,100935.78
2018-05-04T23:28:56.053Z,100930.22
2018-05-04T23:31:23.819Z,100932.98
2018-05-04T23:33:51.539Z,100942.59
2018-05-04T23:36:19.346Z,100947.33
2018-05-04T23:38:47.112Z,100946.06
2018-05-04T23:41:14.838Z,100945.77
2018-05-04T23:43:42.533Z,100940.92
2018-05-04T23:46:10.305Z,100937.69
2018-05-04T23:48:38.068Z,100947.19
2018-05-04T23:51:05.832Z,100945.08
2018-05-04T23:53:33.669Z,100942.13
2018-05-04T23:56:01.466Z,100948.11
2018-05-04T23:58:29.334Z,100946.56
